Deering, AK

10:58 AKDT le 02 septembre 2015 (GMT -0800)
Deering (New) | | Change Station
CLOSE
Current Station
Aéroport
Location: Deering,
Altitude: 16 ft
Stations météo à proximité

Alt. 16 ft 66.07 °N, 162.77 °W | Updated 5 minutes ago

Clear
Ciel dégagé
51 ° F
Paraît 51 ° F
N
9
Vent Variable Vent de Est

Aujourd'hui
Haut(e) -- | Bas -- ° F
--% Risque de précip.
Hier
Haut(e) -- | Bas -- ° F
Precip. -- pouce
7:29 AM 10:09 PM
Lune gibbeuse décroissante, 78% visible
Pression 29.97 pouce
Visibilité 10.0 Miles terrestres
Nuages Ciel dégagé
Point de rosée 37 ° F
Humidité 59%
Précipitations 0.00 pouce
Profondeur de la couche neigeuse Non disponible.
UV 1 sur 12
Pollen Non disponible.
Qualité de l'air Non disponible.
Flu Activity Non disponible.
METAR PADE 021853Z AUTO 09008KT 10SM CLR 11/03 A2997 RMK AO2 SLP149 T01060028 TSNO PNO
Pression 29.97 pouce
Visibilité 10.0 Miles terrestres
Nuages Ciel dégagé
Point de rosée 37 ° F
Humidité 59%
Précipitations 0.00 pouce
Profondeur de la couche neigeuse Non disponible.
UV 1 sur 12
Pollen Non disponible.
Qualité de l'air Non disponible.
Flu Activity Non disponible.
METAR PADE 021853Z AUTO 09008KT 10SM CLR 11/03 A2997 RMK AO2 SLP149 T01060028 TSNO PNO

10-Day Weather Forecast

×

Almanac

Astronomie

Sep. 02, 2015 Lever Coucher
Temps réel
Crépuscule civil
Crépuscule nautique
Crépuscule astronomique
Lune
Durée de lumière visible
Longueur du jour
Tomorrow will be .
, % of the Moon is Illuminated

Extrêmes aujourd'hui

State Highs State Lows

Community

WunderPhotos

Upload Photos

1,851,793 Photos téléchargées !

WunderBlogs® & News

Nearby

Qualité de l'air

  Qualité de l'air Indice de la qualité de l'air Polluant
Not available.

Épaisseur de neige

Station Depth Altitude

Activité sismique

Ville Distance Mag. Time & Date
Minimum magnitude displayed is 2.5.

Températures des eaux côtières

Lieu Température

Stations

Stations météo à proximité

Emplacement de la station Température Refroidissement éolien Point de rosée Humidité Vent Precip. Alt. Mise à jour Type